Time;durP1;ratioP1;P1;durP2;ratioP2;P2;SDS_P1;SDS_P2;PMS_P1;PMS_P2;Temp;Humidity;BMP_temperature;BMP_pressure;BME280_temperature;BME280_humidity;BME280_pressure;Samples;Min_cycle;Max_cycle;Signal;HPM_P1;HPM_P2
2022/01/21 00:00:17;;;;;;;27.90;11.57;;;;;;;0.77;67.69;147865.53;1763881;81;21517;-62
2022/01/21 00:02:44;;;;;;;24.15;11.70;;;;;;;0.73;67.86;147855.25;1770025;79;21249;-64
2022/01/21 00:05:11;;;;;;;22.27;11.40;;;;;;;0.72;68.08;147852.67;1769541;79;21103;-66
2022/01/21 00:07:38;;;;;;;25.10;11.78;;;;;;;0.71;68.19;147850.09;1769854;79;21061;-65
2022/01/21 00:10:06;;;;;;;23.50;11.60;;;;;;;0.71;68.21;147850.09;1769714;81;21008;-65
2022/01/21 00:12:35;;;;;;;25.15;11.90;;;;;;;0.71;68.25;147850.09;1786578;79;21036;-64
2022/01/21 00:15:06;;;;;;;25.55;12.00;;;;;;;0.72;68.21;147852.67;1769203;79;22168;-63
2022/01/21 00:17:34;;;;;;;26.33;11.20;;;;;;;0.72;68.10;147852.67;1768490;79;21516;-64
2022/01/21 00:31:00;;;;;;;28.27;12.58;;;;;;;0.46;68.03;147788.30;1765334;79;21084;-63
2022/01/21 00:33:26;;;;;;;28.47;11.22;;;;;;;0.41;68.19;147775.44;1767580;79;21002;-64
2022/01/21 00:35:53;;;;;;;22.73;11.30;;;;;;;0.39;68.26;147770.28;1765748;79;21037;-64
2022/01/21 00:38:23;;;;;;;27.70;12.50;;;;;;;0.36;68.32;147762.56;1769324;79;21026;-63
2022/01/21 00:40:49;;;;;;;26.17;12.40;;;;;;;0.34;68.39;147757.44;1770493;79;21179;-63
2022/01/21 00:43:31;;;;;;;25.92;11.18;;;;;;;0.34;68.44;147758.69;1781954;79;21479;-64
2022/01/21 00:45:48;;;;;;;31.93;12.60;;;;;;;0.35;68.42;147760.00;1769130;80;21089;-63
2022/01/21 00:48:15;;;;;;;27.20;12.00;;;;;;;0.36;68.35;147762.56;1770047;81;21525;-62
2022/01/21 00:50:42;;;;;;;28.42;11.75;;;;;;;0.35;68.22;147760.00;1744890;81;21045;-62
2022/01/21 00:53:09;;;;;;;23.52;10.93;;;;;;;0.34;68.21;147757.44;1746899;81;21136;-63
2022/01/21 00:55:36;;;;;;;24.05;11.20;;;;;;;0.33;68.20;147754.81;1770656;81;20982;-62
2022/01/21 00:58:02;;;;;;;24.65;11.20;;;;;;;0.35;68.16;147760.00;1798299;79;21038;-63
2022/01/21 01:00:31;;;;;;;27.85;11.78;;;;;;;0.36;68.15;147762.56;1768844;81;21559;-63
2022/01/21 01:02:58;;;;;;;25.72;11.38;;;;;;;0.37;68.08;147765.14;1770244;81;21014;-64
2022/01/21 01:05:25;;;;;;;26.82;11.68;;;;;;;0.37;68.01;147765.14;1770590;79;21173;-63
2022/01/21 01:07:53;;;;;;;28.10;12.50;;;;;;;0.36;68.07;147762.56;1760700;81;22424;-63
2022/01/21 01:10:36;;;;;;;21.23;10.58;;;;;;;0.34;68.11;147757.44;1743383;81;21075;-64
2022/01/21 01:19:55;;;;;;;24.32;11.93;;;;;;;0.32;68.09;147752.23;1777248;78;21822;-57
2022/01/21 01:21:00;;;;;;;26.77;11.80;;;;;;;0.15;68.34;147711.08;1770555;81;20197;-63
2022/01/21 01:23:37;;;;;;;31.93;12.10;;;;;;;0.10;68.52;147699.48;1759817;79;21072;-64
2022/01/21 01:28:40;;;;;;;;;;;;;;;0.02;68.80;147678.91;1773308;79;21485;-57
2022/01/21 01:31:07;;;;;;;29.05;11.22;;;;;;;-0.02;68.96;147668.56;1770246;81;21928;-56
2022/01/21 01:33:40;;;;;;;20.65;10.40;;;;;;;-0.07;69.14;147657.02;1769631;81;21853;-57
2022/01/21 01:36:04;;;;;;;22.80;10.48;;;;;;;-0.08;69.26;147654.45;1769738;79;21092;-63
2022/01/21 01:41:11;;;;;;;23.27;11.45;;;;;;;-0.13;69.51;147641.55;1770042;78;21099;-57
2022/01/21 01:49:28;;;;;;;19.42;9.60;;;;;;;-0.19;70.06;147626.12;1780962;80;21513;-62
2022/01/21 01:51:52;;;;;;;20.80;9.73;;;;;;;-0.18;70.19;147628.69;1736452;81;21738;-56
2022/01/21 01:54:19;;;;;;;24.40;10.65;;;;;;;-0.22;70.34;147619.72;1778993;80;21072;-56
2022/01/21 01:56:52;;;;;;;23.18;10.20;;;;;;;-0.22;70.54;147618.41;1787973;78;22474;-56
2022/01/21 01:59:19;;;;;;;24.35;10.15;;;;;;;-0.20;70.71;147623.55;1757985;80;21478;-57
2022/01/21 02:01:59;;;;;;;24.63;10.23;;;;;;;-0.17;70.78;147631.25;1774951;80;21092;-57
2022/01/21 02:04:26;;;;;;;21.27;9.63;;;;;;;-0.16;70.87;147633.83;1785432;78;21035;-57
2022/01/21 02:06:53;;;;;;;22.27;9.78;;;;;;;-0.14;70.97;147638.97;1784451;80;21091;-57
2022/01/21 02:09:22;;;;;;;23.45;9.43;;;;;;;-0.14;70.95;147638.97;1786070;78;21498;-56
2022/01/21 02:11:49;;;;;;;21.02;10.20;;;;;;;-0.12;70.97;147642.86;1787182;78;20984;-56
2022/01/21 02:14:22;;;;;;;20.00;10.05;;;;;;;-0.14;71.00;147638.97;1782348;80;21075;-56
2022/01/21 02:22:14;;;;;;;18.82;9.65;;;;;;;-0.12;71.15;147642.86;1785329;80;21770;-57
2022/01/21 02:24:48;;;;;;;20.48;9.35;;;;;;;-0.14;71.18;147638.97;1777416;79;21067;-58
2022/01/21 02:27:10;;;;;;;19.65;9.68;;;;;;;-0.15;71.31;147637.72;1755231;81;21055;-63
2022/01/21 02:29:45;;;;;;;19.80;9.90;;;;;;;-0.15;71.40;147637.72;1782343;80;22165;-64
2022/01/21 02:32:07;;;;;;;18.67;9.63;;;;;;;-0.14;71.46;147638.97;1765107;80;21059;-64
2022/01/21 02:34:35;;;;;;;21.30;9.55;;;;;;;-0.13;71.55;147641.55;1782253;80;21091;-64
2022/01/21 02:37:05;;;;;;;20.65;9.38;;;;;;;-0.13;71.60;147641.55;1786317;79;20994;-57
2022/01/21 02:39:33;;;;;;;19.27;10.03;;;;;;;-0.13;71.68;147641.55;1791582;78;21117;-57
2022/01/21 02:41:59;;;;;;;17.12;8.35;;;;;;;-0.14;71.79;147638.97;1810263;79;21075;-63
2022/01/21 02:44:26;;;;;;;21.93;9.15;;;;;;;-0.13;71.84;147640.28;1743928;80;21057;-63
2022/01/21 02:46:57;;;;;;;20.40;9.40;;;;;;;-0.14;71.93;147638.97;1770210;79;21956;-63
2022/01/21 02:49:22;;;;;;;19.17;9.08;;;;;;;-0.16;72.23;147635.14;1735115;81;21076;-64
2022/01/21 02:51:54;;;;;;;18.65;8.13;;;;;;;-0.13;72.51;147641.55;1744960;81;21080;-64
2022/01/21 02:54:21;;;;;;;23.00;8.13;;;;;;;-0.08;72.96;147654.45;1781880;79;21281;-65
2022/01/21 02:56:48;;;;;;;17.73;7.85;;;;;;;-0.03;73.01;147667.31;1810740;78;20992;-63
2022/01/21 02:59:15;;;;;;;17.62;8.00;;;;;;;0.04;73.01;147682.73;1778992;79;21045;-63
2022/01/21 03:01:43;;;;;;;15.68;7.45;;;;;;;0.11;73.00;147702.05;1769361;81;21049;-64
2022/01/21 03:04:15;;;;;;;16.25;8.08;;;;;;;0.21;72.80;147726.50;1769312;81;21652;-64
2022/01/21 03:06:40;;;;;;;14.47;7.65;;;;;;;0.30;72.52;147748.41;1753440;80;20950;-64
2022/01/21 03:09:08;;;;;;;18.77;7.75;;;;;;;0.36;72.19;147763.83;1792077;79;21094;-64
2022/01/21 03:11:35;;;;;;;17.52;8.20;;;;;;;0.41;71.83;147776.69;1804716;79;22575;-64
2022/01/21 03:14:02;;;;;;;15.83;8.18;;;;;;;0.47;71.35;147790.87;1769929;81;21100;-63
2022/01/21 03:16:29;;;;;;;15.13;7.58;;;;;;;0.52;70.49;147802.47;1775925;79;21039;-63
2022/01/21 03:18:56;;;;;;;20.35;7.67;;;;;;;0.54;69.75;147808.88;1782693;79;20984;-63
2022/01/21 03:21:23;;;;;;;13.65;6.35;;;;;;;0.54;68.76;147808.88;1766106;81;20997;-63
2022/01/21 03:23:52;;;;;;;15.50;6.55;;;;;;;0.52;68.32;147803.73;1761431;81;21149;-63
2022/01/21 03:26:23;;;;;;;15.83;6.83;;;;;;;0.48;67.54;147792.19;1757611;81;21017;-64
2022/01/21 03:28:53;;;;;;;14.00;6.87;;;;;;;0.42;67.54;147778.00;1770012;81;21108;-64
2022/01/21 03:31:21;;;;;;;13.93;6.55;;;;;;;0.35;67.54;147760.00;1771011;79;21016;-63
2022/01/21 03:33:48;;;;;;;15.53;7.10;;;;;;;0.29;67.80;147745.83;1778584;78;21071;-64
2022/01/21 03:36:16;;;;;;;13.28;7.35;;;;;;;0.24;68.04;147734.22;1766562;81;21034;-63
2022/01/21 03:38:43;;;;;;;19.92;7.83;;;;;;;0.18;68.33;147717.48;1768245;81;21025;-64
2022/01/21 03:41:10;;;;;;;18.57;7.55;;;;;;;0.13;68.68;147705.94;1767474;79;21061;-64
2022/01/21 03:43:38;;;;;;;18.80;8.45;;;;;;;0.08;69.10;147693.03;1770513;81;21076;-63
2022/01/21 03:46:05;;;;;;;19.85;7.72;;;;;;;0.05;69.43;147685.31;1767864;79;20908;-64
2022/01/21 03:48:32;;;;;;;20.23;8.18;;;;;;;-0.01;69.68;147671.14;1757447;79;21450;-64
2022/01/21 03:50:58;;;;;;;16.82;8.50;;;;;;;-0.03;70.08;147666.00;1770648;81;21001;-64
2022/01/21 03:53:25;;;;;;;15.78;7.80;;;;;;;-0.09;70.38;147651.88;1770072;79;21067;-58
2022/01/21 03:55:52;;;;;;;16.85;8.33;;;;;;;-0.12;70.66;147644.13;1768546;81;21068;-57
2022/01/21 03:58:19;;;;;;;16.90;8.70;;;;;;;-0.18;70.95;147628.69;1774596;78;21144;-57
2022/01/21 04:00:53;;;;;;;17.25;8.00;;;;;;;-0.22;71.14;147618.41;1775286;79;21466;-56
2022/01/21 04:03:21;;;;;;;17.60;8.05;;;;;;;-0.25;71.44;147610.69;1755514;81;21562;-56
2022/01/21 04:05:49;;;;;;;18.10;7.42;;;;;;;-0.30;71.69;147600.41;1762613;81;21017;-58
2022/01/21 04:08:15;;;;;;;19.95;9.00;;;;;;;-0.30;72.09;147600.41;1769832;79;21033;-58
2022/01/21 04:10:48;;;;;;;14.78;7.15;;;;;;;-0.34;72.57;147588.81;1770714;79;21089;-58
2022/01/21 04:13:16;;;;;;;23.55;9.00;;;;;;;-0.37;72.97;147581.09;1765467;80;21625;-56
2022/01/21 04:15:48;;;;;;;22.75;8.18;;;;;;;-0.39;73.38;147577.22;1780545;79;21102;-56
2022/01/21 04:18:14;;;;;;;22.98;9.55;;;;;;;-0.41;73.65;147570.81;1760929;79;21075;-57
2022/01/21 04:20:43;;;;;;;21.17;8.68;;;;;;;-0.44;73.69;147565.67;1760117;81;21612;-56
2022/01/21 04:23:11;;;;;;;21.48;7.90;;;;;;;-0.45;73.90;147561.80;1735233;81;21012;-56
2022/01/21 04:25:39;;;;;;;43.05;14.95;;;;;;;-0.45;73.93;147561.80;1769459;81;22079;-57
2022/01/21 04:28:05;;;;;;;17.00;6.83;;;;;;;-0.42;74.03;147569.50;1770727;81;20981;-56
2022/01/21 04:30:33;;;;;;;16.27;6.62;;;;;;;-0.40;74.18;147573.37;1766493;79;21035;-56
2022/01/21 04:33:00;;;;;;;37.05;14.78;;;;;;;-0.43;74.33;147566.94;1718701;79;21002;-58
2022/01/21 04:35:28;;;;;;;21.00;9.18;;;;;;;-0.45;74.58;147561.80;1763153;81;21107;-57
2022/01/21 04:37:59;;;;;;;18.52;6.33;;;;;;;-0.48;74.88;147554.08;1768731;81;21223;-56
2022/01/21 04:40:28;;;;;;;10.95;5.08;;;;;;;-0.51;75.35;147546.37;1751504;80;21016;-56
2022/01/21 04:48:26;;;;;;;14.98;4.80;;;;;;;-0.56;75.72;147533.47;1785752;78;21098;-56
2022/01/21 04:50:57;;;;;;;7.67;4.15;;;;;;;-0.58;75.93;147530.91;1789807;79;21438;-58
2022/01/21 04:53:23;;;;;;;12.20;4.28;;;;;;;-0.56;76.08;147533.47;1789246;79;21548;-57
2022/01/21 04:55:51;;;;;;;7.03;3.85;;;;;;;-0.57;76.17;147532.20;1789140;79;21056;-57
2022/01/21 04:58:20;;;;;;;13.65;3.65;;;;;;;-0.56;76.32;147534.78;1789192;78;21021;-63
2022/01/21 05:00:50;;;;;;;8.20;3.80;;;;;;;-0.55;76.50;147537.34;1798764;78;20929;-63
2022/01/21 05:03:17;;;;;;;8.13;3.50;;;;;;;-0.55;76.64;147536.03;1789328;79;21617;-64
2022/01/21 05:05:44;;;;;;;7.92;3.40;;;;;;;-0.56;76.70;147533.47;1762941;80;21536;-64
2022/01/21 05:08:25;;;;;;;7.58;3.58;;;;;;;-0.58;76.71;147530.91;1774274;80;21072;-63
2022/01/21 05:10:40;;;;;;;7.50;3.70;;;;;;;-0.56;76.81;147534.78;1779617;79;21080;-64
2022/01/21 05:13:07;;;;;;;8.93;3.25;;;;;;;-0.51;76.68;147546.37;1766425;78;21466;-64
2022/01/21 05:15:59;;;;;;;5.33;2.85;;;;;;;-0.48;76.57;147555.34;1789617;79;21606;-63
2022/01/21 05:18:12;;;;;;;6.42;2.85;;;;;;;-0.42;76.27;147569.50;1786242;79;21119;-57
2022/01/21 05:20:43;;;;;;;5.55;2.65;;;;;;;-0.39;75.97;147577.22;1770573;80;21636;-59
2022/01/21 05:23:12;;;;;;;5.80;2.60;;;;;;;-0.35;75.73;147586.23;1786870;78;21521;-58
2022/01/21 05:25:39;;;;;;;6.65;2.85;;;;;;;-0.33;75.55;147592.69;1787618;80;21600;-57
2022/01/21 05:28:07;;;;;;;4.87;2.45;;;;;;;-0.29;75.35;147601.66;1788443;79;21076;-57
2022/01/21 05:30:37;;;;;;;9.48;2.60;;;;;;;-0.26;75.20;147608.13;1771746;80;21029;-58
2022/01/21 05:33:05;;;;;;;6.25;2.90;;;;;;;-0.23;75.06;147615.83;1717566;80;21086;-64
2022/01/21 05:35:50;;;;;;;5.95;3.08;;;;;;;-0.22;74.97;147618.41;1758639;81;21512;-64
2022/01/21 05:38:34;;;;;;;7.00;2.65;;;;;;;-0.20;74.90;147623.55;1743756;81;21597;-64
2022/01/21 05:41:23;;;;;;;6.85;2.80;;;;;;;-0.16;74.85;147633.83;1768525;78;21136;-63
2022/01/21 05:44:00;;;;;;;8.13;2.92;;;;;;;-0.17;74.68;147632.56;1729260;80;21158;-64
2022/01/21 05:46:36;;;;;;;7.00;2.72;;;;;;;-0.17;74.73;147631.25;1766785;79;21017;-57
2022/01/21 05:51:46;;;;;;;4.12;2.40;;;;;;;-0.14;74.82;147638.97;1751265;80;21036;-57
2022/01/21 05:54:25;;;;;;;5.42;2.52;;;;;;;-0.08;74.78;147654.45;1723825;81;21052;-58
2022/01/21 05:59:37;;;;;;;9.43;3.30;;;;;;;0.01;74.52;147676.34;1769234;80;21033;-59
2022/01/21 06:02:06;;;;;;;11.60;3.15;;;;;;;0.06;74.53;147687.87;1770333;81;21419;-57
2022/01/21 06:04:34;;;;;;;10.48;3.67;;;;;;;0.11;74.34;147700.75;1773313;79;21043;-57
2022/01/21 06:07:01;;;;;;;8.10;3.20;;;;;;;0.13;74.30;147705.94;1758459;81;21053;-56
2022/01/21 06:09:28;;;;;;;7.55;3.58;;;;;;;0.18;74.18;147718.80;1769901;79;21052;-57
2022/01/21 06:11:55;;;;;;;8.63;3.30;;;;;;;0.21;74.16;147726.50;1768188;79;21025;-57
2022/01/21 06:14:25;;;;;;;8.28;3.80;;;;;;;0.22;73.92;147729.08;1762029;81;21118;-57
2022/01/21 06:16:55;;;;;;;10.28;3.35;;;;;;;0.23;73.76;147730.39;1770515;79;21037;-63
2022/01/21 06:19:23;;;;;;;13.40;3.77;;;;;;;0.22;73.68;147729.08;1743415;79;21532;-63
2022/01/21 06:21:49;;;;;;;8.05;3.45;;;;;;;0.22;73.63;147729.08;1760345;79;21474;-64
2022/01/21 06:24:16;;;;;;;8.75;3.17;;;;;;;0.24;73.64;147734.22;1770565;79;21108;-63
2022/01/21 06:26:44;;;;;;;12.25;3.60;;;;;;;0.27;73.53;147740.69;1769423;79;21108;-57
2022/01/21 06:29:11;;;;;;;10.80;3.37;;;;;;;0.24;73.33;147734.22;1769389;79;21111;-57
2022/01/21 06:31:38;;;;;;;6.70;3.35;;;;;;;0.23;73.31;147731.66;1770596;79;21004;-57
2022/01/21 06:34:04;;;;;;;8.75;4.05;;;;;;;0.22;73.46;147729.08;1769314;81;21033;-57
2022/01/21 06:36:31;;;;;;;9.05;4.40;;;;;;;0.26;73.60;147739.37;1770414;81;21036;-57
2022/01/21 06:39:00;;;;;;;12.82;3.65;;;;;;;0.33;73.51;147756.11;1751841;79;21011;-57
2022/01/21 06:41:27;;;;;;;10.32;4.90;;;;;;;0.38;73.29;147767.72;1782551;78;21139;-63
2022/01/21 06:43:54;;;;;;;12.50;4.15;;;;;;;0.44;73.29;147783.16;1785195;79;21425;-63
2022/01/21 06:46:20;;;;;;;9.53;4.33;;;;;;;0.54;73.06;147807.61;1777087;78;21056;-64
2022/01/21 06:48:47;;;;;;;9.83;3.65;;;;;;;0.62;72.65;147826.94;1794028;78;21063;-58
2022/01/21 06:51:13;;;;;;;13.10;4.03;;;;;;;0.68;72.15;147843.69;1785620;79;21022;-57
2022/01/21 06:53:40;;;;;;;8.23;3.35;;;;;;;0.74;71.67;147857.81;1770585;78;21361;-58
2022/01/21 06:56:07;;;;;;;13.98;3.25;;;;;;;0.82;71.45;147878.45;1767388;78;21072;-57
2022/01/21 06:58:34;;;;;;;9.58;3.50;;;;;;;0.91;71.34;147899.03;1767681;80;22134;-64
2022/01/21 07:01:01;;;;;;;12.50;3.80;;;;;;;0.99;70.65;147919.63;1779592;78;21041;-58
2022/01/21 07:03:27;;;;;;;11.03;4.08;;;;;;;1.03;70.27;147928.66;1779622;78;21076;-57
2022/01/21 07:05:54;;;;;;;7.25;3.05;;;;;;;1.11;70.02;147950.56;1779559;78;21032;-57
2022/01/21 07:08:23;;;;;;;14.10;3.58;;;;;;;1.19;69.38;147968.59;1776978;78;20993;-57
2022/01/21 07:10:50;;;;;;;11.10;3.77;;;;;;;1.22;68.74;147976.36;1768648;78;21343;-57
2022/01/21 07:13:25;;;;;;;11.10;3.95;;;;;;;1.27;68.12;147989.23;1787761;78;21056;-58
2022/01/21 07:15:53;;;;;;;14.40;4.23;;;;;;;1.27;67.57;147989.23;1781933;78;21536;-58
2022/01/21 07:18:19;;;;;;;11.95;4.40;;;;;;;1.29;67.32;147994.38;1776731;78;21079;-58
2022/01/21 07:20:47;;;;;;;12.35;4.08;;;;;;;1.32;66.75;148002.09;1776579;78;21789;-57
2022/01/21 07:23:13;;;;;;;10.75;3.62;;;;;;;1.30;66.09;147996.95;1779333;78;21261;-57
2022/01/21 07:25:40;;;;;;;11.70;3.67;;;;;;;1.27;65.11;147990.50;1780964;78;21364;-64
2022/01/21 07:28:08;;;;;;;16.70;3.60;;;;;;;1.23;64.98;147978.94;1784459;78;21064;-58
2022/01/21 07:30:36;;;;;;;14.28;3.27;;;;;;;1.21;64.88;147973.73;1772266;78;21102;-57
2022/01/21 07:33:03;;;;;;;14.45;3.85;;;;;;;1.20;64.78;147971.16;1776216;78;21992;-57
2022/01/21 07:35:33;;;;;;;15.28;3.42;;;;;;;1.22;64.61;147976.36;1784163;78;21031;-58
2022/01/21 07:38:00;;;;;;;11.83;3.02;;;;;;;1.24;64.20;147982.77;1780602;78;21049;-58
2022/01/21 07:40:27;;;;;;;21.15;3.52;;;;;;;1.26;63.89;147986.66;1776236;78;21080;-58
2022/01/21 07:42:54;;;;;;;8.65;2.75;;;;;;;1.28;63.56;147991.80;1770402;79;21084;-57
2022/01/21 07:45:21;;;;;;;12.63;2.50;;;;;;;1.31;63.01;147998.22;1767968;79;21655;-59
2022/01/21 07:47:48;;;;;;;15.88;2.83;;;;;;;1.34;62.84;148005.98;1759336;79;21515;-57
2022/01/21 07:50:16;;;;;;;6.85;2.65;;;;;;;1.38;62.34;148017.55;1768651;79;21122;-58
2022/01/21 07:52:43;;;;;;;15.35;3.42;;;;;;;1.37;61.57;148014.97;1772201;79;21426;-58
2022/01/21 07:55:10;;;;;;;10.35;3.12;;;;;;;1.34;61.19;148007.25;1759938;79;21135;-57
2022/01/21 07:57:37;;;;;;;10.18;2.33;;;;;;;1.29;60.89;147994.38;1784927;79;21120;-56
2022/01/21 08:00:07;;;;;;;7.65;2.47;;;;;;;1.24;60.45;147981.50;1757332;79;21057;-59
2022/01/21 08:02:36;;;;;;;13.10;3.33;;;;;;;1.18;60.41;147966.02;1768358;79;21525;-58
2022/01/21 08:05:04;;;;;;;8.75;2.40;;;;;;;1.12;60.72;147953.14;1754543;79;21045;-59
2022/01/21 08:07:31;;;;;;;15.15;3.33;;;;;;;1.12;60.35;147953.14;1754790;79;21071;-61
2022/01/21 08:09:59;;;;;;;10.60;2.60;;;;;;;1.11;60.64;147950.56;1762933;79;21133;-61
2022/01/21 08:12:26;;;;;;;12.88;2.92;;;;;;;1.12;60.48;147951.88;1765780;79;21521;-59
2022/01/21 08:14:53;;;;;;;12.65;2.58;;;;;;;1.13;60.21;147954.45;1761943;79;21064;-67
2022/01/21 08:17:21;;;;;;;13.15;2.90;;;;;;;1.12;60.28;147953.14;1763441;79;21064;-67
2022/01/21 08:19:48;;;;;;;10.95;2.00;;;;;;;1.17;59.55;147963.44;1772312;79;21791;-59
2022/01/21 08:22:15;;;;;;;10.30;2.52;;;;;;;1.21;58.45;147973.73;1757540;79;21084;-58
2022/01/21 08:24:42;;;;;;;9.98;2.22;;;;;;;1.25;57.49;147984.08;1761241;79;21107;-65
2022/01/21 08:27:09;;;;;;;8.23;1.98;;;;;;;1.27;56.31;147989.23;1761401;79;21049;-67
2022/01/21 08:29:36;;;;;;;7.35;2.25;;;;;;;1.28;56.04;147993.06;1762481;79;21044;-67
2022/01/21 08:32:04;;;;;;;12.07;2.15;;;;;;;1.32;56.16;148002.09;1761596;79;21769;-66
2022/01/21 08:34:34;;;;;;;6.62;2.05;;;;;;;1.36;55.82;148011.14;1746113;80;21136;-66
2022/01/21 08:37:03;;;;;;;8.23;2.20;;;;;;;1.35;55.67;148009.81;1761333;79;21513;-66
2022/01/21 08:39:30;;;;;;;5.37;2.10;;;;;;;1.36;56.05;148012.39;1766155;79;21150;-66
2022/01/21 08:41:57;;;;;;;8.43;2.40;;;;;;;1.41;56.15;148024.00;1758052;78;21432;-66
2022/01/21 08:44:24;;;;;;;8.53;2.00;;;;;;;1.43;56.08;148030.42;1773155;78;21099;-67
2022/01/21 08:46:51;;;;;;;10.15;2.27;;;;;;;1.43;55.86;148030.42;1773605;78;21864;-65
2022/01/21 08:49:20;;;;;;;6.78;2.00;;;;;;;1.49;55.61;148043.34;1773216;78;21545;-67
2022/01/21 08:51:52;;;;;;;12.18;3.27;;;;;;;1.49;54.87;148043.34;1771752;78;21546;-64
2022/01/21 08:54:18;;;;;;;7.75;2.00;;;;;;;1.46;54.34;148035.62;1771725;78;20949;-67
2022/01/21 08:56:47;;;;;;;7.97;2.12;;;;;;;1.40;53.56;148022.69;1780693;78;21098;-66
2022/01/21 08:59:16;;;;;;;6.60;1.80;;;;;;;1.39;53.47;148020.13;1776343;78;21143;-67
2022/01/21 09:01:44;;;;;;;7.42;1.52;;;;;;;1.39;53.13;148020.13;1777775;78;21036;-65
2022/01/21 09:04:13;;;;;;;5.80;1.62;;;;;;;1.39;52.22;148020.13;1777279;78;21118;-67
2022/01/21 09:06:40;;;;;;;7.83;2.10;;;;;;;1.40;52.41;148022.69;1771856;78;21048;-65
2022/01/21 09:09:07;;;;;;;10.00;2.00;;;;;;;1.50;52.25;148047.19;1781203;78;21072;-65
2022/01/21 09:11:34;;;;;;;9.45;1.87;;;;;;;1.60;51.96;148071.66;1777481;78;21672;-66
2022/01/21 09:14:02;;;;;;;16.75;2.12;;;;;;;1.71;51.44;148100.05;1774903;78;21021;-65
2022/01/21 09:16:30;;;;;;;10.40;2.50;;;;;;;1.81;50.62;148123.22;1780037;78;21108;-65
2022/01/21 09:19:02;;;;;;;7.08;2.10;;;;;;;1.89;50.79;148143.88;1777277;78;21303;-61
2022/01/21 09:21:30;;;;;;;18.90;3.05;;;;;;;1.99;50.79;148169.64;1747286;78;21067;-66
2022/01/21 09:24:01;;;;;;;11.60;2.47;;;;;;;2.09;50.96;148194.13;1780506;78;21600;-65
2022/01/21 09:26:29;;;;;;;21.65;2.35;;;;;;;2.23;50.95;148228.94;1754546;80;21258;-65
2022/01/21 09:28:57;;;;;;;9.95;2.12;;;;;;;2.32;50.99;148249.55;1775337;78;21030;-58
2022/01/21 09:31:25;;;;;;;25.32;7.25;;;;;;;2.41;50.36;148272.78;1779333;78;21079;-68
2022/01/21 09:33:52;;;;;;;7.22;2.35;;;;;;;2.37;50.28;148263.75;1777119;78;21084;-65
2022/01/21 09:36:19;;;;;;;9.20;2.10;;;;;;;2.27;50.17;148239.25;1779512;78;21475;-66
2022/01/21 09:38:47;;;;;;;12.70;2.90;;;;;;;2.19;50.66;148218.62;1774122;78;21067;-65
2022/01/21 09:41:15;;;;;;;9.18;2.05;;;;;;;2.18;50.90;148214.73;1776302;78;21343;-63
2022/01/21 09:43:47;;;;;;;12.37;2.10;;;;;;;2.21;50.31;148223.78;1770062;79;21096;-64
2022/01/21 09:46:15;;;;;;;15.45;2.17;;;;;;;2.26;50.06;148236.66;1757695;78;21095;-65
2022/01/21 09:48:55;;;;;;;10.60;2.22;;;;;;;2.29;49.57;148244.39;1765735;79;21124;-65
2022/01/21 09:51:30;;;;;;;5.62;1.90;;;;;;;2.27;49.05;148239.25;1756818;79;21530;-66
2022/01/21 09:54:03;;;;;;;5.12;1.72;;;;;;;2.32;49.11;148249.55;1728820;79;21080;-63
2022/01/21 09:56:31;;;;;;;10.20;2.30;;;;;;;2.36;48.69;148261.16;1757358;79;21001;-64
2022/01/21 09:58:59;;;;;;;5.65;1.87;;;;;;;2.37;47.77;148262.48;1764321;79;21006;-58
2022/01/21 10:01:27;;;;;;;9.90;2.20;;;;;;;2.34;47.08;148254.75;1767326;79;21801;-59
2022/01/21 10:03:54;;;;;;;10.88;2.50;;;;;;;2.27;47.34;148237.98;1760088;78;21041;-58
2022/01/21 10:06:27;;;;;;;12.75;2.33;;;;;;;2.21;47.35;148223.78;1758432;79;21048;-58
2022/01/21 10:08:55;;;;;;;9.38;1.95;;;;;;;2.17;46.82;148212.16;1764042;78;21024;-57
2022/01/21 10:11:23;;;;;;;7.30;2.20;;;;;;;2.03;47.43;148177.36;1761587;79;21032;-56
2022/01/21 10:13:50;;;;;;;8.68;2.90;;;;;;;2.01;48.02;148173.53;1763477;79;21121;-58
2022/01/21 10:16:19;;;;;;;10.48;2.50;;;;;;;2.07;48.01;148187.67;1765970;79;21752;-57
2022/01/21 10:19:08;;;;;;;23.45;9.60;;;;;;;2.13;47.63;148203.17;1748953;79;22136;-57
2022/01/21 10:21:38;;;;;;;13.78;3.00;;;;;;;2.17;47.61;148213.47;1725599;80;21043;-58
2022/01/21 10:24:13;;;;;;;9.13;1.80;;;;;;;2.26;47.54;148236.66;1726154;80;21075;-57
2022/01/21 10:26:51;;;;;;;11.05;2.15;;;;;;;2.31;46.20;148248.28;1708856;81;21503;-56
2022/01/21 10:29:18;;;;;;;6.85;1.90;;;;;;;2.31;45.81;148246.97;1727358;81;21075;-60
2022/01/21 10:31:58;;;;;;;8.13;1.60;;;;;;;2.28;45.66;148241.81;1722881;81;21172;-57
2022/01/21 10:34:30;;;;;;;11.00;2.10;;;;;;;2.28;45.51;148240.56;1722204;81;21064;-58
2022/01/21 10:37:04;;;;;;;11.57;2.72;;;;;;;2.26;45.11;148236.66;1695567;81;21108;-58
2022/01/21 10:39:30;;;;;;;37.03;17.37;;;;;;;2.24;45.50;148230.25;1725467;81;21810;-58
2022/01/21 10:41:57;;;;;;;14.65;5.92;;;;;;;2.24;45.60;148231.52;1703058;81;21417;-59
2022/01/21 10:44:30;;;;;;;10.65;3.42;;;;;;;2.26;45.61;148236.66;1726589;80;21615;-58
2022/01/21 10:47:08;;;;;;;8.23;2.60;;;;;;;2.31;45.76;148246.97;1729487;80;21191;-65
2022/01/21 10:49:39;;;;;;;10.40;2.40;;;;;;;2.39;45.43;148267.63;1730623;80;21063;-59
2022/01/21 10:52:11;;;;;;;13.30;2.40;;;;;;;2.47;44.99;148288.25;1722056;81;21148;-64
2022/01/21 10:54:45;;;;;;;6.03;2.00;;;;;;;2.53;43.95;148302.44;1760252;78;21101;-64
2022/01/21 10:57:16;;;;;;;5.72;2.10;;;;;;;2.52;43.78;148301.13;1769837;78;23962;-64
2022/01/21 11:00:02;;;;;;;8.75;3.05;;;;;;;2.53;42.99;148303.70;1772709;78;21723;-56
2022/01/21 11:02:47;;;;;;;14.38;2.20;;;;;;;2.53;43.53;148303.70;1767520;78;22017;-64
2022/01/21 11:05:28;;;;;;;12.28;2.70;;;;;;;2.56;43.53;148311.48;1761791;78;21229;-64
2022/01/21 11:08:03;;;;;;;10.30;2.12;;;;;;;2.58;43.77;148316.64;1767062;78;21350;-58
2022/01/21 11:10:38;;;;;;;6.03;1.90;;;;;;;2.61;43.33;148321.80;1766552;78;21024;-58
2022/01/21 11:13:19;;;;;;;4.60;2.00;;;;;;;2.57;42.82;148314.06;1766258;79;21048;-65
2022/01/21 11:15:54;;;;;;;9.23;2.62;;;;;;;2.48;42.78;148289.56;1777403;79;21523;-58
2022/01/21 11:18:21;;;;;;;7.20;2.55;;;;;;;2.41;43.30;148272.78;1772100;78;21123;-65
2022/01/21 11:20:56;;;;;;;7.47;2.60;;;;;;;2.41;43.30;148274.05;1733517;80;21040;-58
2022/01/21 11:23:22;;;;;;;5.10;2.08;;;;;;;2.44;43.06;148280.52;1766212;79;20948;-56
2022/01/21 11:25:51;;;;;;;7.30;2.63;;;;;;;2.47;43.16;148288.25;1766741;78;21591;-64
2022/01/21 11:28:25;;;;;;;8.05;2.33;;;;;;;2.46;42.77;148285.67;1777377;78;21010;-57
2022/01/21 11:30:53;;;;;;;8.70;2.67;;;;;;;2.45;42.98;148281.83;1785190;78;21182;-63
2022/01/21 11:33:20;;;;;;;8.05;2.40;;;;;;;2.48;43.17;148289.56;1776412;78;20945;-64
2022/01/21 11:35:51;;;;;;;9.28;2.47;;;;;;;2.53;43.13;148302.44;1779096;78;21090;-64
2022/01/21 11:38:20;;;;;;;10.82;2.22;;;;;;;2.59;43.04;148317.91;1776490;78;21056;-63
2022/01/21 11:40:48;;;;;;;7.50;2.00;;;;;;;2.64;42.97;148329.53;1772335;78;21022;-64
2022/01/21 11:43:16;;;;;;;13.05;2.45;;;;;;;2.68;42.75;148341.16;1779470;78;21135;-65
2022/01/21 11:46:16;;;;;;;12.43;2.10;;;;;;;2.68;42.53;148339.84;1778467;78;21609;-58
2022/01/21 11:51:31;;;;;;;5.10;1.92;;;;;;;2.70;42.44;148345.00;1761049;80;21466;-58
2022/01/21 11:54:00;;;;;;;6.22;2.27;;;;;;;2.70;42.50;148345.00;1763300;78;21126;-64
2022/01/21 11:56:46;;;;;;;8.23;2.27;;;;;;;2.72;42.59;148350.16;1777100;78;21613;-58
2022/01/21 11:59:43;;;;;;;5.55;2.35;;;;;;;2.74;42.76;148355.31;1787609;78;21111;-58
2022/01/21 12:02:19;;;;;;;6.05;2.15;;;;;;;2.76;42.96;148360.45;1786420;78;21553;-57
2022/01/21 12:04:56;;;;;;;5.58;2.00;;;;;;;2.74;43.27;148354.03;1791855;78;21078;-58
2022/01/21 12:07:40;;;;;;;7.60;1.85;;;;;;;2.74;43.36;148355.31;1781575;78;21048;-58
2022/01/21 12:10:25;;;;;;;6.72;1.77;;;;;;;2.78;43.19;148365.66;1784528;78;23060;-58
2022/01/21 12:13:04;;;;;;;8.83;2.10;;;;;;;2.82;42.68;148375.97;1776915;78;21016;-63
2022/01/21 12:15:44;;;;;;;5.30;1.45;;;;;;;2.85;42.50;148382.39;1783256;78;21609;-58
2022/01/21 12:18:55;;;;;;;6.15;1.72;;;;;;;2.83;42.65;148378.55;1793686;78;21012;-64
2022/01/21 12:21:29;;;;;;;4.12;1.70;;;;;;;2.84;42.65;148381.12;1772328;78;21067;-58